Time;durP1;ratioP1;P1;durP2;ratioP2;P2;SDS_P1;SDS_P2;PMS_P1;PMS_P2;Temp;Humidity;BMP_temperature;BMP_pressure;BME280_temperature;BME280_humidity;BME280_pressure;Samples;Min_cycle;Max_cycle;Signal;HPM_P1;HPM_P2
2022/05/09 00:00:01;;;;;;;0.7;0.7;;;;;;;11.7;100.0;102470;;;;
2022/05/09 00:01:00;;;;;;;0.7;0.7;;;;;;;11.7;100.0;102470;;;;
2022/05/09 00:02:00;;;;;;;0.7;0.7;;;;;;;11.6;100.0;102470;;;;
2022/05/09 00:03:00;;;;;;;0.7;0.7;;;;;;;11.6;100.0;102470;;;;
2022/05/09 00:04:00;;;;;;;0.7;0.7;;;;;;;11.8;100.0;102470;;;;
2022/05/09 00:05:00;;;;;;;0.7;0.7;;;;;;;11.8;100.0;102470;;;;
2022/05/09 00:06:00;;;;;;;0.7;0.7;;;;;;;11.8;100.0;102470;;;;
2022/05/09 00:07:00;;;;;;;0.6;0.6;;;;;;;11.8;100.0;102470;;;;
2022/05/09 00:08:00;;;;;;;0.6;0.6;;;;;;;11.7;100.0;102470;;;;
2022/05/09 00:09:00;;;;;;;0.6;0.6;;;;;;;11.7;100.0;102470;;;;
2022/05/09 00:10:00;;;;;;;0.6;0.6;;;;;;;11.6;100.0;102460;;;;
2022/05/09 00:11:00;;;;;;;0.6;0.6;;;;;;;11.6;100.0;102460;;;;
2022/05/09 00:12:00;;;;;;;0.6;0.6;;;;;;;11.4;100.0;102460;;;;
2022/05/09 00:13:00;;;;;;;0.6;0.6;;;;;;;11.4;100.0;102460;;;;
2022/05/09 00:14:00;;;;;;;0.6;0.6;;;;;;;11.6;100.0;102460;;;;
2022/05/09 00:15:00;;;;;;;0.6;0.6;;;;;;;11.6;100.0;102460;;;;
2022/05/09 00:16:00;;;;;;;0.6;0.6;;;;;;;11.6;100.0;102460;;;;
2022/05/09 00:17:00;;;;;;;0.6;0.6;;;;;;;11.6;100.0;102460;;;;
2022/05/09 00:18:00;;;;;;;0.6;0.6;;;;;;;11.8;100.0;102450;;;;
2022/05/09 00:19:03;;;;;;;0.6;0.6;;;;;;;11.8;100.0;102450;;;;
2022/05/09 00:20:00;;;;;;;0.6;0.6;;;;;;;11.7;100.0;102450;;;;
2022/05/09 00:21:00;;;;;;;0.6;0.6;;;;;;;11.7;100.0;102450;;;;
2022/05/09 00:22:00;;;;;;;0.6;0.6;;;;;;;11.7;100.0;102450;;;;
2022/05/09 00:23:00;;;;;;;0.6;0.6;;;;;;;11.7;100.0;102450;;;;
2022/05/09 00:24:00;;;;;;;0.6;0.6;;;;;;;11.7;100.0;102460;;;;
2022/05/09 00:25:00;;;;;;;0.6;0.6;;;;;;;11.7;100.0;102460;;;;
2022/05/09 00:26:01;;;;;;;0.6;0.6;;;;;;;11.5;100.0;102450;;;;
2022/05/09 00:27:00;;;;;;;0.8;0.8;;;;;;;11.5;100.0;102450;;;;
2022/05/09 00:28:00;;;;;;;0.8;0.8;;;;;;;11.6;100.0;102450;;;;
2022/05/09 00:29:02;;;;;;;0.8;0.8;;;;;;;11.6;100.0;102450;;;;
2022/05/09 00:30:00;;;;;;;0.8;0.8;;;;;;;11.6;100.0;102450;;;;
2022/05/09 00:31:00;;;;;;;0.8;0.8;;;;;;;11.6;100.0;102450;;;;
2022/05/09 00:32:00;;;;;;;0.8;0.8;;;;;;;11.4;100.0;102450;;;;
2022/05/09 00:33:00;;;;;;;0.8;0.8;;;;;;;11.4;100.0;102450;;;;
2022/05/09 00:34:00;;;;;;;0.8;0.8;;;;;;;11.4;100.0;102450;;;;
2022/05/09 00:35:00;;;;;;;0.8;0.8;;;;;;;11.4;100.0;102450;;;;
2022/05/09 00:36:00;;;;;;;0.8;0.8;;;;;;;11.3;100.0;102450;;;;
2022/05/09 00:37:00;;;;;;;0.8;0.8;;;;;;;11.3;100.0;102450;;;;
2022/05/09 00:38:00;;;;;;;0.8;0.8;;;;;;;11.1;100.0;102450;;;;
2022/05/09 00:39:01;;;;;;;0.8;0.8;;;;;;;11.1;100.0;102450;;;;
2022/05/09 00:40:01;;;;;;;0.8;0.8;;;;;;;11.1;100.0;102450;;;;
2022/05/09 00:42:09;;;;;;;0.8;0.8;;;;;;;11.0;100.0;102450;;;;
2022/05/09 00:43:02;;;;;;;0.8;0.8;;;;;;;11.0;100.0;102450;;;;
2022/05/09 00:44:03;;;;;;;0.8;0.8;;;;;;;11.2;100.0;102450;;;;
2022/05/09 00:45:00;;;;;;;0.8;0.8;;;;;;;11.2;100.0;102450;;;;
2022/05/09 00:46:00;;;;;;;0.8;0.8;;;;;;;11.1;100.0;102450;;;;
2022/05/09 00:47:00;;;;;;;0.8;0.8;;;;;;;11.1;100.0;102450;;;;
2022/05/09 00:48:00;;;;;;;0.8;0.8;;;;;;;11.1;100.0;102450;;;;
2022/05/09 00:49:05;;;;;;;0.8;0.8;;;;;;;11.1;100.0;102450;;;;
2022/05/09 00:50:02;;;;;;;0.8;0.8;;;;;;;11.0;100.0;102450;;;;
2022/05/09 00:51:00;;;;;;;0.8;0.8;;;;;;;11.0;100.0;102450;;;;
2022/05/09 00:52:10;;;;;;;0.8;0.8;;;;;;;11.0;100.0;102450;;;;
2022/05/09 00:53:02;;;;;;;0.8;0.8;;;;;;;11.0;100.0;102450;;;;
2022/05/09 00:54:02;;;;;;;0.8;0.8;;;;;;;11.0;100.0;102450;;;;
2022/05/09 00:55:04;;;;;;;0.8;0.8;;;;;;;11.0;100.0;102450;;;;
2022/05/09 00:56:02;;;;;;;0.8;0.8;;;;;;;11.1;100.0;102450;;;;
2022/05/09 00:57:07;;;;;;;0.8;0.8;;;;;;;11.1;100.0;102450;;;;
2022/05/09 00:58:07;;;;;;;0.8;0.8;;;;;;;11.0;100.0;102440;;;;
2022/05/09 00:59:02;;;;;;;0.8;0.8;;;;;;;11.0;100.0;102440;;;;
2022/05/09 01:00:03;;;;;;;0.8;0.8;;;;;;;10.9;100.0;102440;;;;
2022/05/09 01:01:01;;;;;;;0.8;0.8;;;;;;;10.9;100.0;102440;;;;
2022/05/09 01:02:00;;;;;;;0.8;0.8;;;;;;;10.8;100.0;102440;;;;
2022/05/09 01:03:04;;;;;;;0.8;0.8;;;;;;;10.8;100.0;102440;;;;
2022/05/09 01:04:06;;;;;;;0.8;0.8;;;;;;;10.9;100.0;102440;;;;
2022/05/09 01:05:00;;;;;;;0.8;0.8;;;;;;;10.9;100.0;102440;;;;
2022/05/09 01:06:00;;;;;;;0.8;0.8;;;;;;;11.2;100.0;102440;;;;
2022/05/09 01:07:00;;;;;;;0.8;0.8;;;;;;;11.2;100.0;102440;;;;
2022/05/09 01:08:00;;;;;;;0.8;0.8;;;;;;;11.1;100.0;102440;;;;
2022/05/09 01:09:00;;;;;;;0.8;0.8;;;;;;;11.1;100.0;102440;;;;
2022/05/09 01:10:01;;;;;;;0.8;0.8;;;;;;;10.9;100.0;102430;;;;
2022/05/09 01:11:03;;;;;;;0.8;0.8;;;;;;;10.9;100.0;102430;;;;
2022/05/09 01:12:00;;;;;;;0.8;0.8;;;;;;;11.1;100.0;102430;;;;
2022/05/09 01:13:02;;;;;;;0.8;0.8;;;;;;;11.1;100.0;102430;;;;
2022/05/09 01:14:03;;;;;;;0.8;0.8;;;;;;;10.8;100.0;102440;;;;
2022/05/09 01:15:03;;;;;;;0.8;0.8;;;;;;;10.8;100.0;102440;;;;
2022/05/09 01:16:02;;;;;;;0.8;0.8;;;;;;;10.8;100.0;102440;;;;
2022/05/09 01:17:02;;;;;;;0.8;0.8;;;;;;;10.8;100.0;102440;;;;
2022/05/09 01:18:01;;;;;;;0.8;0.8;;;;;;;10.7;100.0;102440;;;;
2022/05/09 01:19:03;;;;;;;0.8;0.8;;;;;;;10.7;100.0;102440;;;;
2022/05/09 01:20:01;;;;;;;0.8;0.8;;;;;;;10.7;100.0;102430;;;;
2022/05/09 01:21:00;;;;;;;0.8;0.8;;;;;;;10.7;100.0;102430;;;;
2022/05/09 01:22:00;;;;;;;0.8;0.8;;;;;;;10.4;100.0;102430;;;;
2022/05/09 01:23:00;;;;;;;0.8;0.8;;;;;;;10.4;100.0;102430;;;;
2022/05/09 01:24:00;;;;;;;0.8;0.8;;;;;;;10.6;100.0;102430;;;;
2022/05/09 01:25:03;;;;;;;0.8;0.8;;;;;;;10.6;100.0;102430;;;;
2022/05/09 01:26:00;;;;;;;0.8;0.8;;;;;;;10.7;100.0;102430;;;;
2022/05/09 01:27:00;;;;;;;1.0;1.0;;;;;;;10.7;100.0;102430;;;;
2022/05/09 01:28:00;;;;;;;1.0;1.0;;;;;;;10.8;100.0;102420;;;;
2022/05/09 01:29:05;;;;;;;1.0;1.0;;;;;;;10.8;100.0;102420;;;;
2022/05/09 01:30:10;;;;;;;1.0;1.0;;;;;;;10.8;100.0;102430;;;;
2022/05/09 01:31:02;;;;;;;1.0;1.0;;;;;;;10.8;100.0;102430;;;;
2022/05/09 01:32:02;;;;;;;1.0;1.0;;;;;;;10.8;100.0;102430;;;;
2022/05/09 01:33:10;;;;;;;1.0;1.0;;;;;;;10.8;100.0;102430;;;;
2022/05/09 01:34:01;;;;;;;1.0;1.0;;;;;;;10.7;100.0;102430;;;;
2022/05/09 01:35:10;;;;;;;1.0;1.0;;;;;;;10.7;100.0;102430;;;;
2022/05/09 01:36:02;;;;;;;1.0;1.0;;;;;;;10.8;100.0;102420;;;;
2022/05/09 01:37:03;;;;;;;1.0;1.0;;;;;;;10.8;100.0;102420;;;;
2022/05/09 01:38:10;;;;;;;1.0;1.0;;;;;;;10.8;100.0;102420;;;;
2022/05/09 01:39:02;;;;;;;1.0;1.0;;;;;;;10.8;100.0;102420;;;;
2022/05/09 01:40:00;;;;;;;1.0;1.0;;;;;;;10.6;100.0;102420;;;;
2022/05/09 01:41:00;;;;;;;1.0;1.0;;;;;;;10.6;100.0;102420;;;;
2022/05/09 01:42:03;;;;;;;1.0;1.0;;;;;;;10.5;100.0;102420;;;;
2022/05/09 01:43:00;;;;;;;1.0;1.0;;;;;;;10.5;100.0;102420;;;;
2022/05/09 01:44:00;;;;;;;1.0;1.0;;;;;;;10.5;100.0;102420;;;;
2022/05/09 01:45:00;;;;;;;1.0;1.0;;;;;;;10.5;100.0;102420;;;;
2022/05/09 01:46:01;;;;;;;1.0;1.0;;;;;;;10.7;100.0;102420;;;;
2022/05/09 01:50:01;;;;;;;0.8;0.8;;;;;;;10.8;100.0;102420;;;;
2022/05/09 01:51:00;;;;;;;0.8;0.8;;;;;;;10.8;100.0;102420;;;;
2022/05/09 01:52:01;;;;;;;0.8;0.8;;;;;;;10.7;100.0;102420;;;;
2022/05/09 01:53:00;;;;;;;0.8;0.8;;;;;;;10.7;100.0;102420;;;;
2022/05/09 01:54:00;;;;;;;0.8;0.8;;;;;;;10.7;100.0;102420;;;;
2022/05/09 01:55:00;;;;;;;0.8;0.8;;;;;;;10.7;100.0;102420;;;;
2022/05/09 01:56:00;;;;;;;0.8;0.8;;;;;;;10.6;100.0;102420;;;;
2022/05/09 01:57:00;;;;;;;0.8;0.8;;;;;;;10.6;100.0;102420;;;;
2022/05/09 01:58:00;;;;;;;0.8;0.8;;;;;;;10.4;100.0;102420;;;;
2022/05/09 01:59:00;;;;;;;0.8;0.8;;;;;;;10.4;100.0;102420;;;;
2022/05/09 02:00:01;;;;;;;0.8;0.8;;;;;;;10.5;100.0;102420;;;;
2022/05/09 02:01:00;;;;;;;0.8;0.8;;;;;;;10.5;100.0;102420;;;;
2022/05/09 02:02:03;;;;;;;0.8;0.8;;;;;;;10.6;100.0;102420;;;;
2022/05/09 02:03:00;;;;;;;0.8;0.8;;;;;;;10.6;100.0;102420;;;;
2022/05/09 02:04:00;;;;;;;0.8;0.8;;;;;;;10.6;100.0;102420;;;;
2022/05/09 02:05:00;;;;;;;0.8;0.8;;;;;;;10.6;100.0;102420;;;;
2022/05/09 02:06:00;;;;;;;0.8;0.8;;;;;;;10.4;100.0;102420;;;;
2022/05/09 02:07:00;;;;;;;1.0;1.0;;;;;;;10.4;100.0;102420;;;;
2022/05/09 02:08:00;;;;;;;1.0;1.0;;;;;;;10.3;100.0;102420;;;;
2022/05/09 02:09:00;;;;;;;1.0;1.0;;;;;;;10.3;100.0;102420;;;;
2022/05/09 02:10:00;;;;;;;1.0;1.0;;;;;;;10.4;100.0;102420;;;;
2022/05/09 02:11:00;;;;;;;1.0;1.0;;;;;;;10.4;100.0;102420;;;;
2022/05/09 02:12:00;;;;;;;1.0;1.0;;;;;;;10.3;100.0;102420;;;;
2022/05/09 02:13:00;;;;;;;1.0;1.0;;;;;;;10.3;100.0;102420;;;;
2022/05/09 02:14:00;;;;;;;1.0;1.0;;;;;;;10.6;100.0;102420;;;;
2022/05/09 02:15:01;;;;;;;1.0;1.0;;;;;;;10.6;100.0;102420;;;;
2022/05/09 02:16:00;;;;;;;1.0;1.0;;;;;;;10.4;100.0;102420;;;;
2022/05/09 02:17:01;;;;;;;1.0;1.0;;;;;;;10.4;100.0;102420;;;;
2022/05/09 02:18:00;;;;;;;1.0;1.0;;;;;;;10.2;100.0;102420;;;;
2022/05/09 02:19:00;;;;;;;1.0;1.0;;;;;;;10.2;100.0;102420;;;;
2022/05/09 02:20:01;;;;;;;1.0;1.0;;;;;;;10.0;100.0;102420;;;;
2022/05/09 02:21:00;;;;;;;1.0;1.0;;;;;;;10.0;100.0;102420;;;;
2022/05/09 02:22:00;;;;;;;1.0;1.0;;;;;;;10.0;100.0;102420;;;;
2022/05/09 02:23:00;;;;;;;1.0;1.0;;;;;;;10.0;100.0;102420;;;;
2022/05/09 02:24:00;;;;;;;1.0;1.0;;;;;;;10.2;100.0;102420;;;;
2022/05/09 02:25:00;;;;;;;1.0;1.0;;;;;;;10.2;100.0;102420;;;;
2022/05/09 02:26:01;;;;;;;1.1;1.1;;;;;;;10.3;100.0;102410;;;;
2022/05/09 02:27:00;;;;;;;1.1;1.1;;;;;;;10.3;100.0;102410;;;;
2022/05/09 02:28:01;;;;;;;1.1;1.1;;;;;;;10.3;100.0;102410;;;;
2022/05/09 02:29:00;;;;;;;1.1;1.1;;;;;;;10.3;100.0;102410;;;;
2022/05/09 02:30:03;;;;;;;1.1;1.1;;;;;;;10.1;100.0;102410;;;;
2022/05/09 02:31:00;;;;;;;1.1;1.1;;;;;;;10.1;100.0;102410;;;;
2022/05/09 02:32:02;;;;;;;1.1;1.1;;;;;;;10.0;100.0;102420;;;;
2022/05/09 02:33:00;;;;;;;1.1;1.1;;;;;;;10.0;100.0;102420;;;;
2022/05/09 02:34:01;;;;;;;1.1;1.1;;;;;;;10.0;100.0;102410;;;;
2022/05/09 02:35:00;;;;;;;1.1;1.1;;;;;;;10.0;100.0;102410;;;;
2022/05/09 02:36:00;;;;;;;1.1;1.1;;;;;;;9.9;100.0;102410;;;;
2022/05/09 02:37:00;;;;;;;1.1;1.1;;;;;;;9.9;100.0;102410;;;;
2022/05/09 02:38:00;;;;;;;1.1;1.1;;;;;;;9.9;100.0;102410;;;;
2022/05/09 02:39:00;;;;;;;1.1;1.1;;;;;;;9.9;100.0;102410;;;;
2022/05/09 02:40:00;;;;;;;1.1;1.1;;;;;;;9.8;100.0;102410;;;;
2022/05/09 02:41:00;;;;;;;1.1;1.1;;;;;;;9.8;100.0;102410;;;;
2022/05/09 02:42:00;;;;;;;1.1;1.1;;;;;;;9.8;100.0;102410;;;;
2022/05/09 02:43:00;;;;;;;1.1;1.1;;;;;;;9.8;100.0;102410;;;;
2022/05/09 02:44:00;;;;;;;1.1;1.1;;;;;;;10.0;100.0;102410;;;;
2022/05/09 02:45:00;;;;;;;1.1;1.1;;;;;;;10.0;100.0;102410;;;;
2022/05/09 02:46:03;;;;;;;1.9;1.6;;;;;;;10.1;100.0;102410;;;;
2022/05/09 02:47:00;;;;;;;1.9;1.6;;;;;;;10.1;100.0;102410;;;;
2022/05/09 02:48:00;;;;;;;1.9;1.6;;;;;;;10.1;100.0;102400;;;;
2022/05/09 02:49:02;;;;;;;1.9;1.6;;;;;;;10.1;100.0;102400;;;;
2022/05/09 02:50:01;;;;;;;1.9;1.6;;;;;;;10.0;100.0;102400;;;;
2022/05/09 02:51:00;;;;;;;1.9;1.6;;;;;;;10.0;100.0;102400;;;;
2022/05/09 02:52:02;;;;;;;1.9;1.6;;;;;;;10.0;100.0;102400;;;;
2022/05/09 02:53:00;;;;;;;1.9;1.6;;;;;;;10.0;100.0;102400;;;;
2022/05/09 02:54:00;;;;;;;1.9;1.6;;;;;;;10.0;100.0;102400;;;;
2022/05/09 02:55:00;;;;;;;1.9;1.6;;;;;;;10.0;100.0;102400;;;;
2022/05/09 02:56:00;;;;;;;1.9;1.6;;;;;;;9.9;100.0;102400;;;;
2022/05/09 02:57:00;;;;;;;1.9;1.6;;;;;;;9.9;100.0;102400;;;;
2022/05/09 02:58:01;;;;;;;1.9;1.6;;;;;;;9.9;100.0;102400;;;;
2022/05/09 02:59:00;;;;;;;1.9;1.6;;;;;;;9.9;100.0;102400;;;;
2022/05/09 03:00:01;;;;;;;1.9;1.6;;;;;;;9.7;100.0;102410;;;;
2022/05/09 03:01:00;;;;;;;1.9;1.6;;;;;;;9.7;100.0;102410;;;;
2022/05/09 03:02:01;;;;;;;1.9;1.6;;;;;;;9.8;100.0;102400;;;;
2022/05/09 03:05:00;;;;;;;1.9;1.6;;;;;;;9.8;100.0;102410;;;;
2022/05/09 03:06:00;;;;;;;1.6;1.5;;;;;;;9.9;100.0;102400;;;;
2022/05/09 03:07:00;;;;;;;1.6;1.5;;;;;;;9.9;100.0;102400;;;;
2022/05/09 03:08:01;;;;;;;1.6;1.5;;;;;;;9.7;100.0;102400;;;;
2022/05/09 03:09:00;;;;;;;1.6;1.5;;;;;;;9.7;100.0;102400;;;;
2022/05/09 03:10:01;;;;;;;1.6;1.5;;;;;;;9.7;100.0;102400;;;;
2022/05/09 03:11:00;;;;;;;1.6;1.5;;;;;;;9.7;100.0;102400;;;;
2022/05/09 03:12:00;;;;;;;1.6;1.5;;;;;;;9.7;100.0;102400;;;;
2022/05/09 03:13:01;;;;;;;1.6;1.5;;;;;;;9.7;100.0;102400;;;;
2022/05/09 03:14:00;;;;;;;1.6;1.5;;;;;;;9.7;100.0;102400;;;;
2022/05/09 03:15:00;;;;;;;1.6;1.5;;;;;;;9.7;100.0;102400;;;;
2022/05/09 03:16:01;;;;;;;1.6;1.5;;;;;;;9.8;100.0;102400;;;;
2022/05/09 03:17:00;;;;;;;1.6;1.5;;;;;;;9.8;100.0;102400;;;;
2022/05/09 03:18:00;;;;;;;1.6;1.5;;;;;;;9.8;100.0;102400;;;;
2022/05/09 03:19:00;;;;;;;1.6;1.5;;;;;;;9.8;100.0;102400;;;;
2022/05/09 03:20:03;;;;;;;1.6;1.5;;;;;;;9.4;100.0;102400;;;;
2022/05/09 03:21:01;;;;;;;1.6;1.5;;;;;;;9.4;100.0;102400;;;;
2022/05/09 03:22:00;;;;;;;1.6;1.5;;;;;;;9.6;100.0;102400;;;;
2022/05/09 03:23:02;;;;;;;1.6;1.5;;;;;;;9.6;100.0;102400;;;;
2022/05/09 03:24:00;;;;;;;1.6;1.5;;;;;;;9.5;100.0;102390;;;;
2022/05/09 03:25:00;;;;;;;1.6;1.5;;;;;;;9.5;100.0;102390;;;;
2022/05/09 03:26:00;;;;;;;1.0;1.0;;;;;;;9.7;100.0;102390;;;;
2022/05/09 03:27:02;;;;;;;1.0;1.0;;;;;;;9.7;100.0;102390;;;;
2022/05/09 03:28:00;;;;;;;1.0;1.0;;;;;;;9.6;100.0;102390;;;;
2022/05/09 03:29:00;;;;;;;1.0;1.0;;;;;;;9.6;100.0;102390;;;;
2022/05/09 03:30:00;;;;;;;1.0;1.0;;;;;;;9.5;100.0;102390;;;;
2022/05/09 03:31:00;;;;;;;1.0;1.0;;;;;;;9.5;100.0;102390;;;;
2022/05/09 03:32:00;;;;;;;1.0;1.0;;;;;;;9.4;100.0;102390;;;;
2022/05/09 03:33:00;;;;;;;1.0;1.0;;;;;;;9.4;100.0;102390;;;;
2022/05/09 03:34:00;;;;;;;1.0;1.0;;;;;;;9.5;100.0;102390;;;;
2022/05/09 03:35:00;;;;;;;1.0;1.0;;;;;;;9.5;100.0;102390;;;;
2022/05/09 03:36:01;;;;;;;1.0;1.0;;;;;;;9.6;100.0;102380;;;;
2022/05/09 03:37:00;;;;;;;1.0;1.0;;;;;;;9.6;100.0;102380;;;;
2022/05/09 03:38:00;;;;;;;1.0;1.0;;;;;;;9.4;100.0;102380;;;;
2022/05/09 03:39:00;;;;;;;1.0;1.0;;;;;;;9.4;100.0;102380;;;;
2022/05/09 03:40:01;;;;;;;1.0;1.0;;;;;;;9.5;100.0;102380;;;;
2022/05/09 03:41:00;;;;;;;1.0;1.0;;;;;;;9.5;100.0;102380;;;;
2022/05/09 03:42:00;;;;;;;1.0;1.0;;;;;;;9.5;100.0;102390;;;;
2022/05/09 03:43:00;;;;;;;1.0;1.0;;;;;;;9.5;100.0;102390;;;;
2022/05/09 03:44:00;;;;;;;1.0;1.0;;;;;;;9.4;100.0;102380;;;;
2022/05/09 03:45:00;;;;;;;1.0;1.0;;;;;;;9.4;100.0;102380;;;;
2022/05/09 03:46:00;;;;;;;1.3;1.3;;;;;;;9.3;100.0;102390;;;;
2022/05/09 03:47:00;;;;;;;1.3;1.3;;;;;;;9.3;100.0;102390;;;;
2022/05/09 03:48:00;;;;;;;1.3;1.3;;;;;;;9.4;100.0;102380;;;;
2022/05/09 03:49:00;;;;;;;1.3;1.3;;;;;;;9.4;100.0;102380;;;;
2022/05/09 03:50:01;;;;;;;1.3;1.3;;;;;;;9.5;100.0;102380;;;;
2022/05/09 03:51:01;;;;;;;1.3;1.3;;;;;;;9.5;100.0;102380;;;;
2022/05/09 03:52:00;;;;;;;1.3;1.3;;;;;;;9.6;100.0;102390;;;;
2022/05/09 03:53:00;;;;;;;1.3;1.3;;;;;;;9.6;100.0;102390;;;;
2022/05/09 03:54:00;;;;;;;1.3;1.3;;;;;;;9.5;100.0;102390;;;;
2022/05/09 03:55:00;;;;;;;1.3;1.3;;;;;;;9.5;100.0;102390;;;;
2022/05/09 03:56:00;;;;;;;1.3;1.3;;;;;;;9.4;100.0;102380;;;;
2022/05/09 03:57:00;;;;;;;1.3;1.3;;;;;;;9.4;100.0;102380;;;;
2022/05/09 03:58:00;;;;;;;1.3;1.3;;;;;;;9.4;100.0;102390;;;;
2022/05/09 03:59:00;;;;;;;1.3;1.3;;;;;;;9.4;100.0;102390;;;;
2022/05/09 04:00:03;;;;;;;1.3;1.3;;;;;;;9.4;100.0;102380;;;;
2022/05/09 04:01:00;;;;;;;1.3;1.3;;;;;;;9.4;100.0;102380;;;;
2022/05/09 04:02:00;;;;;;;1.3;1.3;;;;;;;9.2;100.0;102380;;;;
2022/05/09 04:03:00;;;;;;;1.3;1.3;;;;;;;9.2;100.0;102380;;;;
2022/05/09 04:04:00;;;;;;;1.3;1.3;;;;;;;9.2;100.0;102380;;;;
2022/05/09 04:05:00;;;;;;;1.3;1.3;;;;;;;9.2;100.0;102380;;;;
2022/05/09 04:06:01;;;;;;;1.2;1.2;;;;;;;9.3;100.0;102380;;;;
2022/05/09 04:07:00;;;;;;;1.2;1.2;;;;;;;9.3;100.0;102380;;;;
2022/05/09 04:08:01;;;;;;;1.2;1.2;;;;;;;9.3;100.0;102380;;;;
2022/05/09 04:09:00;;;;;;;1.2;1.2;;;;;;;9.3;100.0;102380;;;;
2022/05/09 04:10:01;;;;;;;1.2;1.2;;;;;;;9.4;100.0;102380;;;;
2022/05/09 04:11:00;;;;;;;1.2;1.2;;;;;;;9.4;100.0;102380;;;;
2022/05/09 04:12:00;;;;;;;1.2;1.2;;;;;;;9.3;100.0;102380;;;;
2022/05/09 04:13:00;;;;;;;1.2;1.2;;;;;;;9.3;100.0;102380;;;;
2022/05/09 04:14:00;;;;;;;1.2;1.2;;;;;;;9.2;100.0;102380;;;;
2022/05/09 04:17:00;;;;;;;1.2;1.2;;;;;;;9.3;100.0;102380;;;;
2022/05/09 04:18:00;;;;;;;1.2;1.2;;;;;;;9.1;100.0;102380;;;;
2022/05/09 04:19:00;;;;;;;1.2;1.2;;;;;;;9.1;100.0;102380;;;;
2022/05/09 04:20:00;;;;;;;1.2;1.2;;;;;;;9.2;100.0;102380;;;;
2022/05/09 04:21:00;;;;;;;1.2;1.2;;;;;;;9.2;100.0;102380;;;;
2022/05/09 04:22:02;;;;;;;1.2;1.2;;;;;;;9.2;100.0;102380;;;;
2022/05/09 04:23:00;;;;;;;1.2;1.2;;;;;;;9.2;100.0;102380;;;;
2022/05/09 04:24:02;;;;;;;1.2;1.2;;;;;;;9.1;100.0;102380;;;;
2022/05/09 04:25:00;;;;;;;1.2;1.2;;;;;;;9.1;100.0;102380;;;;
2022/05/09 04:26:00;;;;;;;1.1;1.1;;;;;;;9.1;100.0;102380;;;;
2022/05/09 04:27:01;;;;;;;1.1;1.1;;;;;;;9.1;100.0;102380;;;;
2022/05/09 04:28:02;;;;;;;1.1;1.1;;;;;;;9.1;100.0;102380;;;;
2022/05/09 04:29:00;;;;;;;1.1;1.1;;;;;;;9.1;100.0;102380;;;;
2022/05/09 04:30:00;;;;;;;1.1;1.1;;;;;;;9.2;100.0;102380;;;;
2022/05/09 04:31:02;;;;;;;1.1;1.1;;;;;;;9.2;100.0;102380;;;;
2022/05/09 04:32:00;;;;;;;1.1;1.1;;;;;;;9.3;100.0;102380;;;;
2022/05/09 04:33:00;;;;;;;1.1;1.1;;;;;;;9.3;100.0;102380;;;;
2022/05/09 04:34:00;;;;;;;1.1;1.1;;;;;;;9.2;100.0;102370;;;;
2022/05/09 04:35:00;;;;;;;1.1;1.1;;;;;;;9.2;100.0;102370;;;;
2022/05/09 04:36:00;;;;;;;1.1;1.1;;;;;;;9.2;100.0;102370;;;;
2022/05/09 04:37:00;;;;;;;1.1;1.1;;;;;;;9.2;100.0;102370;;;;
2022/05/09 04:38:02;;;;;;;1.1;1.1;;;;;;;9.2;100.0;102370;;;;
2022/05/09 04:39:00;;;;;;;1.1;1.1;;;;;;;9.2;100.0;102370;;;;
2022/05/09 04:40:00;;;;;;;1.1;1.1;;;;;;;9.2;100.0;102370;;;;
2022/05/09 04:41:02;;;;;;;1.1;1.1;;;;;;;9.2;100.0;102370;;;;
2022/05/09 04:42:00;;;;;;;1.1;1.1;;;;;;;9.2;100.0;102380;;;;
2022/05/09 04:43:00;;;;;;;1.1;1.1;;;;;;;9.2;100.0;102380;;;;
2022/05/09 04:44:03;;;;;;;1.1;1.1;;;;;;;9.0;100.0;102380;;;;
2022/05/09 04:45:00;;;;;;;1.1;1.1;;;;;;;9.0;100.0;102380;;;;
2022/05/09 04:46:00;;;;;;;1.9;1.8;;;;;;;9.1;100.0;102380;;;;
2022/05/09 04:47:00;;;;;;;1.9;1.8;;;;;;;9.1;100.0;102380;;;;
2022/05/09 04:48:00;;;;;;;1.9;1.8;;;;;;;9.2;100.0;102370;;;;
2022/05/09 04:49:00;;;;;;;1.9;1.8;;;;;;;9.2;100.0;102370;;;;
2022/05/09 04:50:01;;;;;;;1.9;1.8;;;;;;;9.2;100.0;102370;;;;
2022/05/09 04:51:00;;;;;;;1.9;1.8;;;;;;;9.2;100.0;102370;;;;
2022/05/09 04:52:00;;;;;;;1.9;1.8;;;;;;;9.2;100.0;102370;;;;
2022/05/09 04:53:00;;;;;;;1.9;1.8;;;;;;;9.2;100.0;102370;;;;
2022/05/09 04:54:00;;;;;;;1.9;1.8;;;;;;;9.2;100.0;102370;;;;
2022/05/09 04:55:00;;;;;;;1.9;1.8;;;;;;;9.2;100.0;102370;;;;
2022/05/09 04:56:00;;;;;;;1.9;1.8;;;;;;;9.2;100.0;102370;;;;
2022/05/09 04:57:00;;;;;;;1.9;1.8;;;;;;;9.2;100.0;102370;;;;
2022/05/09 04:58:00;;;;;;;1.9;1.8;;;;;;;9.2;100.0;102370;;;;
2022/05/09 04:59:00;;;;;;;1.9;1.8;;;;;;;9.2;100.0;102370;;;;
2022/05/09 05:00:01;;;;;;;1.9;1.8;;;;;;;9.3;100.0;102370;;;;
2022/05/09 05:01:00;;;;;;;1.9;1.8;;;;;;;9.3;100.0;102370;;;;
2022/05/09 05:02:03;;;;;;;1.9;1.8;;;;;;;9.2;100.0;102370;;;;
2022/05/09 05:03:00;;;;;;;1.9;1.8;;;;;;;9.2;100.0;102370;;;;
2022/05/09 05:04:00;;;;;;;1.9;1.8;;;;;;;9.3;100.0;102370;;;;
2022/05/09 05:05:00;;;;;;;1.9;1.8;;;;;;;9.3;100.0;102370;;;;
2022/05/09 05:06:00;;;;;;;1.1;1.1;;;;;;;9.2;100.0;102370;;;;
2022/05/09 05:07:00;;;;;;;1.1;1.1;;;;;;;9.2;100.0;102370;;;;
2022/05/09 05:08:00;;;;;;;1.1;1.1;;;;;;;9.2;100.0;102370;;;;
2022/05/09 05:09:00;;;;;;;1.1;1.1;;;;;;;9.2;100.0;102370;;;;
2022/05/09 05:10:01;;;;;;;1.1;1.1;;;;;;;9.2;100.0;102360;;;;
2022/05/09 05:11:00;;;;;;;1.1;1.1;;;;;;;9.2;100.0;102360;;;;
2022/05/09 05:12:00;;;;;;;1.1;1.1;;;;;;;9.2;100.0;102360;;;;
2022/05/09 05:13:02;;;;;;;1.1;1.1;;;;;;;9.2;100.0;102360;;;;
2022/05/09 05:14:00;;;;;;;1.1;1.1;;;;;;;9.3;100.0;102360;;;;
2022/05/09 05:15:00;;;;;;;1.1;1.1;;;;;;;9.3;100.0;102360;;;;
2022/05/09 05:16:00;;;;;;;1.1;1.1;;;;;;;9.3;100.0;102360;;;;
2022/05/09 05:17:00;;;;;;;1.1;1.1;;;;;;;9.3;100.0;102360;;;;
2022/05/09 05:18:00;;;;;;;1.1;1.1;;;;;;;9.4;100.0;102360;;;;
2022/05/09 05:19:00;;;;;;;1.1;1.1;;;;;;;9.4;100.0;102360;;;;
2022/05/09 05:20:02;;;;;;;1.1;1.1;;;;;;;9.4;100.0;102360;;;;
2022/05/09 05:21:07;;;;;;;1.1;1.1;;;;;;;9.4;100.0;102360;;;;
2022/05/09 05:22:01;;;;;;;1.1;1.1;;;;;;;9.4;100.0;102360;;;;
2022/05/09 05:23:00;;;;;;;1.1;1.1;;;;;;;9.4;100.0;102360;;;;
2022/05/09 05:24:00;;;;;;;1.1;1.1;;;;;;;9.4;100.0;102360;;;;
2022/05/09 05:25:00;;;;;;;1.1;1.1;;;;;;;9.4;100.0;102360;;;;
2022/05/09 05:26:00;;;;;;;1.0;1.0;;;;;;;9.4;100.0;102360;;;;
2022/05/09 05:27:00;;;;;;;1.0;1.0;;;;;;;9.4;100.0;102360;;;;
2022/05/09 05:28:00;;;;;;;1.0;1.0;;;;;;;9.4;100.0;102360;;;;
2022/05/09 05:29:00;;;;;;;1.0;1.0;;;;;;;9.4;100.0;102360;;;;
2022/05/09 05:30:01;;;;;;;1.0;1.0;;;;;;;9.6;100.0;102360;;;;
2022/05/09 05:31:10;;;;;;;1.0;1.0;;;;;;;9.6;100.0;102360;;;;
2022/05/09 05:32:00;;;;;;;1.0;1.0;;;;;;;9.5;100.0;102360;;;;
2022/05/09 05:33:01;;;;;;;1.0;1.0;;;;;;;9.5;100.0;102360;;;;
2022/05/09 05:34:00;;;;;;;1.0;1.0;;;;;;;9.6;100.0;102360;;;;
2022/05/09 05:35:00;;;;;;;1.0;1.0;;;;;;;9.6;100.0;102360;;;;
2022/05/09 05:36:00;;;;;;;1.0;1.0;;;;;;;9.6;100.0;102370;;;;
2022/05/09 05:37:00;;;;;;;1.0;1.0;;;;;;;9.6;100.0;102370;;;;
2022/05/09 05:38:00;;;;;;;1.0;1.0;;;;;;;9.7;100.0;102370;;;;
2022/05/09 05:39:00;;;;;;;1.0;1.0;;;;;;;9.7;100.0;102370;;;;
2022/05/09 05:40:01;;;;;;;1.0;1.0;;;;;;;9.7;100.0;102370;;;;
2022/05/09 05:41:00;;;;;;;1.0;1.0;;;;;;;9.7;100.0;102370;;;;
2022/05/09 05:42:00;;;;;;;1.0;1.0;;;;;;;9.8;100.0;102370;;;;
2022/05/09 05:43:00;;;;;;;1.0;1.0;;;;;;;9.8;100.0;102370;;;;
2022/05/09 05:44:00;;;;;;;1.0;1.0;;;;;;;10.0;100.0;102370;;;;
2022/05/09 05:45:00;;;;;;;1.0;1.0;;;;;;;10.0;100.0;102370;;;;
2022/05/09 05:46:00;;;;;;;1.0;1.0;;;;;;;10.1;100.0;102370;;;;
2022/05/09 05:47:10;;;;;;;1.0;1.0;;;;;;;10.1;100.0;102370;;;;
2022/05/09 05:48:00;;;;;;;1.0;1.0;;;;;;;10.1;100.0;102370;;;;
2022/05/09 05:49:00;;;;;;;1.0;1.0;;;;;;;10.1;100.0;102370;;;;
2022/05/09 05:50:04;;;;;;;1.0;1.0;;;;;;;10.1;100.0;102370;;;;
2022/05/09 05:51:00;;;;;;;1.0;1.0;;;;;;;10.1;100.0;102370;;;;
2022/05/09 05:52:03;;;;;;;1.0;1.0;;;;;;;10.1;100.0;102370;;;;
2022/05/09 05:53:00;;;;;;;1.0;1.0;;;;;;;10.1;100.0;102370;;;;
2022/05/09 05:54:00;;;;;;;1.0;1.0;;;;;;;10.1;100.0;102370;;;;
2022/05/09 05:55:00;;;;;;;1.0;1.0;;;;;;;10.1;100.0;102370;;;;
2022/05/09 05:56:00;;;;;;;1.0;1.0;;;;;;;10.3;100.0;102370;;;;
2022/05/09 05:57:01;;;;;;;1.0;1.0;;;;;;;10.3;100.0;102370;;;;
2022/05/09 05:58:00;;;;;;;1.0;1.0;;;;;;;10.4;100.0;102370;;;;
2022/05/09 05:59:00;;;;;;;1.0;1.0;;;;;;;10.4;100.0;102370;;;;
2022/05/09 06:00:05;;;;;;;1.0;1.0;;;;;;;10.4;100.0;102370;;;;
2022/05/09 06:01:00;;;;;;;1.0;1.0;;;;;;;10.4;100.0;102370;;;;
2022/05/09 06:02:00;;;;;;;1.0;1.0;;;;;;;10.5;100.0;102370;;;;
2022/05/09 06:03:04;;;;;;;1.0;1.0;;;;;;;10.5;100.0;102370;;;;
2022/05/09 06:04:00;;;;;;;1.0;1.0;;;;;;;10.4;100.0;102370;;;;
2022/05/09 06:05:00;;;;;;;1.0;1.0;;;;;;;10.4;100.0;102370;;;;
2022/05/09 06:06:00;;;;;;;0.8;0.8;;;;;;;10.8;100.0;102370;;;;
2022/05/09 06:07:00;;;;;;;0.8;0.8;;;;;;;10.8;100.0;102370;;;;
2022/05/09 06:08:00;;;;;;;0.8;0.8;;;;;;;10.7;100.0;102370;;;;
2022/05/09 06:09:01;;;;;;;0.8;0.8;;;;;;;10.7;100.0;102370;;;;
2022/05/09 06:10:01;;;;;;;0.8;0.8;;;;;;;10.7;100.0;102370;;;;
2022/05/09 06:11:03;;;;;;;0.8;0.8;;;;;;;10.7;100.0;102370;;;;
2022/05/09 06:12:01;;;;;;;0.8;0.8;;;;;;;10.8;100.0;102370;;;;
2022/05/09 06:13:02;;;;;;;0.8;0.8;;;;;;;10.8;100.0;102370;;;;
2022/05/09 06:14:03;;;;;;;0.8;0.8;;;;;;;11.0;100.0;102370;;;;
2022/05/09 06:16:00;;;;;;;0.8;0.8;;;;;;;11.0;100.0;102370;;;;
2022/05/09 06:17:00;;;;;;;0.8;0.8;;;;;;;11.0;100.0;102370;;;;
2022/05/09 06:18:01;;;;;;;0.8;0.8;;;;;;;11.1;100.0;102370;;;;
2022/05/09 06:19:00;;;;;;;0.8;0.8;;;;;;;11.1;100.0;102370;;;;
2022/05/09 06:20:01;;;;;;;0.8;0.8;;;;;;;11.2;100.0;102370;;;;
2022/05/09 06:21:00;;;;;;;0.8;0.8;;;;;;;11.2;100.0;102370;;;;
2022/05/09 06:22:00;;;;;;;0.8;0.8;;;;;;;11.3;100.0;102370;;;;
2022/05/09 06:23:00;;;;;;;0.8;0.8;;;;;;;11.3;100.0;102370;;;;
2022/05/09 06:24:00;;;;;;;0.8;0.8;;;;;;;11.4;100.0;102370;;;;
2022/05/09 06:25:00;;;;;;;0.8;0.8;;;;;;;11.4;100.0;102370;;;;
2022/05/09 06:26:00;;;;;;;0.8;0.8;;;;;;;11.5;100.0;102370;;;;
2022/05/09 06:27:00;;;;;;;0.8;0.8;;;;;;;11.5;100.0;102370;;;;
2022/05/09 06:28:00;;;;;;;0.8;0.8;;;;;;;11.7;100.0;102370;;;;
2022/05/09 06:29:00;;;;;;;0.8;0.8;;;;;;;11.7;100.0;102370;;;;
2022/05/09 06:30:01;;;;;;;0.8;0.8;;;;;;;11.7;100.0;102370;;;;
2022/05/09 06:31:01;;;;;;;0.8;0.8;;;;;;;11.7;100.0;102370;;;;
2022/05/09 06:32:00;;;;;;;0.8;0.8;;;;;;;11.8;100.0;102360;;;;
2022/05/09 06:33:00;;;;;;;0.8;0.8;;;;;;;11.8;100.0;102360;;;;
2022/05/09 06:34:02;;;;;;;0.8;0.8;;;;;;;11.8;100.0;102360;;;;